sensor_id;sensor_type;location;lat;lon;timestamp;P1;durP1;ratioP1;P2;durP2;ratioP2
6973;SDS011;3527;52.376;8.990;2023-07-31T00:00:54;9.97;;;8.10;;
6973;SDS011;3527;52.376;8.990;2023-07-31T00:03:22;9.33;;;7.70;;
6973;SDS011;3527;52.376;8.990;2023-07-31T00:05:50;9.60;;;7.33;;
6973;SDS011;3527;52.376;8.990;2023-07-31T00:08:17;8.83;;;6.63;;
6973;SDS011;3527;52.376;8.990;2023-07-31T00:10:44;7.87;;;6.30;;
6973;SDS011;3527;52.376;8.990;2023-07-31T00:13:12;9.87;;;6.57;;
6973;SDS011;3527;52.376;8.990;2023-07-31T00:16:00;8.63;;;6.37;;
6973;SDS011;3527;52.376;8.990;2023-07-31T00:18:29;9.47;;;6.67;;
6973;SDS011;3527;52.376;8.990;2023-07-31T00:20:59;10.37;;;6.80;;
6973;SDS011;3527;52.376;8.990;2023-07-31T00:23:28;8.33;;;6.30;;
6973;SDS011;3527;52.376;8.990;2023-07-31T00:25:56;8.17;;;6.83;;
6973;SDS011;3527;52.376;8.990;2023-07-31T00:28:24;8.17;;;6.30;;
6973;SDS011;3527;52.376;8.990;2023-07-31T00:30:51;6.13;;;5.53;;
6973;SDS011;3527;52.376;8.990;2023-07-31T00:33:19;8.30;;;5.57;;
6973;SDS011;3527;52.376;8.990;2023-07-31T00:35:48;8.80;;;5.77;;
6973;SDS011;3527;52.376;8.990;2023-07-31T00:38:16;6.80;;;5.40;;
6973;SDS011;3527;52.376;8.990;2023-07-31T00:40:44;7.10;;;5.63;;
6973;SDS011;3527;52.376;8.990;2023-07-31T00:43:15;6.80;;;5.10;;
6973;SDS011;3527;52.376;8.990;2023-07-31T00:45:44;6.20;;;4.83;;
6973;SDS011;3527;52.376;8.990;2023-07-31T00:48:12;5.97;;;5.23;;
6973;SDS011;3527;52.376;8.990;2023-07-31T00:50:39;8.47;;;5.20;;
6973;SDS011;3527;52.376;8.990;2023-07-31T00:53:10;5.43;;;4.80;;
6973;SDS011;3527;52.376;8.990;2023-07-31T00:55:37;9.37;;;5.60;;
6973;SDS011;3527;52.376;8.990;2023-07-31T00:58:09;6.33;;;5.07;;
6973;SDS011;3527;52.376;8.990;2023-07-31T01:00:54;6.30;;;4.60;;
6973;SDS011;3527;52.376;8.990;2023-07-31T01:03:25;4.87;;;4.20;;
6973;SDS011;3527;52.376;8.990;2023-07-31T01:11:19;5.53;;;3.03;;
6973;SDS011;3527;52.376;8.990;2023-07-31T01:13:56;5.00;;;3.10;;
6973;SDS011;3527;52.376;8.990;2023-07-31T01:16:26;4.83;;;2.93;;
6973;SDS011;3527;52.376;8.990;2023-07-31T01:18:55;4.20;;;3.03;;
6973;SDS011;3527;52.376;8.990;2023-07-31T01:21:33;4.20;;;3.00;;
6973;SDS011;3527;52.376;8.990;2023-07-31T01:26:54;5.37;;;2.73;;
6973;SDS011;3527;52.376;8.990;2023-07-31T01:29:46;3.90;;;2.73;;
6973;SDS011;3527;52.376;8.990;2023-07-31T01:32:23;3.30;;;2.83;;
6973;SDS011;3527;52.376;8.990;2023-07-31T01:34:55;3.83;;;3.10;;
6973;SDS011;3527;52.376;8.990;2023-07-31T01:37:29;3.27;;;2.60;;
6973;SDS011;3527;52.376;8.990;2023-07-31T01:39:57;7.07;;;3.20;;
6973;SDS011;3527;52.376;8.990;2023-07-31T01:42:24;4.20;;;3.20;;
6973;SDS011;3527;52.376;8.990;2023-07-31T01:44:54;4.83;;;3.63;;
6973;SDS011;3527;52.376;8.990;2023-07-31T01:47:22;5.93;;;3.30;;
6973;SDS011;3527;52.376;8.990;2023-07-31T01:49:56;5.33;;;3.50;;
6973;SDS011;3527;52.376;8.990;2023-07-31T01:52:24;5.07;;;3.37;;
6973;SDS011;3527;52.376;8.990;2023-07-31T01:54:52;4.57;;;3.33;;
6973;SDS011;3527;52.376;8.990;2023-07-31T01:57:20;4.13;;;3.60;;
6973;SDS011;3527;52.376;8.990;2023-07-31T01:59:51;6.63;;;3.77;;
6973;SDS011;3527;52.376;8.990;2023-07-31T02:02:21;4.47;;;3.83;;
6973;SDS011;3527;52.376;8.990;2023-07-31T02:04:50;5.17;;;4.00;;
6973;SDS011;3527;52.376;8.990;2023-07-31T02:07:18;4.57;;;3.77;;
6973;SDS011;3527;52.376;8.990;2023-07-31T02:09:46;5.40;;;4.50;;
6973;SDS011;3527;52.376;8.990;2023-07-31T02:12:14;5.80;;;4.57;;
6973;SDS011;3527;52.376;8.990;2023-07-31T02:14:45;8.20;;;5.17;;
6973;SDS011;3527;52.376;8.990;2023-07-31T02:17:15;6.63;;;4.80;;
6973;SDS011;3527;52.376;8.990;2023-07-31T02:19:44;7.13;;;5.10;;
6973;SDS011;3527;52.376;8.990;2023-07-31T02:22:12;7.33;;;5.57;;
6973;SDS011;3527;52.376;8.990;2023-07-31T02:24:39;6.87;;;5.17;;
6973;SDS011;3527;52.376;8.990;2023-07-31T02:27:07;6.53;;;5.87;;
6973;SDS011;3527;52.376;8.990;2023-07-31T02:29:34;6.63;;;5.63;;
6973;SDS011;3527;52.376;8.990;2023-07-31T02:32:03;6.17;;;5.40;;
6973;SDS011;3527;52.376;8.990;2023-07-31T02:34:30;6.13;;;5.43;;
6973;SDS011;3527;52.376;8.990;2023-07-31T02:37:00;6.20;;;5.23;;
6973;SDS011;3527;52.376;8.990;2023-07-31T02:39:27;6.40;;;5.30;;
6973;SDS011;3527;52.376;8.990;2023-07-31T02:41:57;5.53;;;4.93;;
6973;SDS011;3527;52.376;8.990;2023-07-31T02:44:25;5.93;;;5.13;;
6973;SDS011;3527;52.376;8.990;2023-07-31T02:46:52;5.67;;;4.80;;
6973;SDS011;3527;52.376;8.990;2023-07-31T02:49:20;5.37;;;4.70;;
6973;SDS011;3527;52.376;8.990;2023-07-31T02:51:48;5.63;;;4.60;;
6973;SDS011;3527;52.376;8.990;2023-07-31T02:54:16;5.63;;;4.53;;
6973;SDS011;3527;52.376;8.990;2023-07-31T02:56:43;5.60;;;4.53;;
6973;SDS011;3527;52.376;8.990;2023-07-31T02:59:11;4.30;;;3.90;;
6973;SDS011;3527;52.376;8.990;2023-07-31T03:01:38;5.10;;;4.30;;
6973;SDS011;3527;52.376;8.990;2023-07-31T03:04:06;4.23;;;3.83;;
6973;SDS011;3527;52.376;8.990;2023-07-31T03:06:42;5.23;;;3.93;;
6973;SDS011;3527;52.376;8.990;2023-07-31T03:09:10;5.20;;;4.03;;
6973;SDS011;3527;52.376;8.990;2023-07-31T03:11:37;5.37;;;4.40;;
6973;SDS011;3527;52.376;8.990;2023-07-31T03:14:05;5.80;;;4.37;;
6973;SDS011;3527;52.376;8.990;2023-07-31T03:16:33;5.63;;;4.40;;
6973;SDS011;3527;52.376;8.990;2023-07-31T03:19:02;5.07;;;4.53;;
6973;SDS011;3527;52.376;8.990;2023-07-31T03:21:30;5.63;;;4.10;;
6973;SDS011;3527;52.376;8.990;2023-07-31T03:23:57;4.80;;;3.77;;
6973;SDS011;3527;52.376;8.990;2023-07-31T03:26:25;4.00;;;3.60;;
6973;SDS011;3527;52.376;8.990;2023-07-31T03:28:53;4.47;;;3.00;;
6973;SDS011;3527;52.376;8.990;2023-07-31T03:31:21;3.90;;;3.03;;
6973;SDS011;3527;52.376;8.990;2023-07-31T03:33:48;4.03;;;3.10;;
6973;SDS011;3527;52.376;8.990;2023-07-31T03:36:15;3.87;;;2.97;;
6973;SDS011;3527;52.376;8.990;2023-07-31T03:38:42;4.30;;;3.20;;
6973;SDS011;3527;52.376;8.990;2023-07-31T03:41:12;4.40;;;3.17;;
6973;SDS011;3527;52.376;8.990;2023-07-31T03:43:41;4.23;;;2.50;;
6973;SDS011;3527;52.376;8.990;2023-07-31T03:46:09;4.03;;;2.70;;
6973;SDS011;3527;52.376;8.990;2023-07-31T03:48:36;2.90;;;2.57;;
6973;SDS011;3527;52.376;8.990;2023-07-31T03:51:03;4.10;;;2.83;;
6973;SDS011;3527;52.376;8.990;2023-07-31T03:56:23;3.87;;;2.50;;
6973;SDS011;3527;52.376;8.990;2023-07-31T03:58:50;4.07;;;2.80;;
6973;SDS011;3527;52.376;8.990;2023-07-31T04:01:19;3.67;;;2.37;;
6973;SDS011;3527;52.376;8.990;2023-07-31T04:03:50;3.87;;;2.27;;
6973;SDS011;3527;52.376;8.990;2023-07-31T04:06:17;4.50;;;2.20;;
6973;SDS011;3527;52.376;8.990;2023-07-31T04:08:56;5.10;;;2.60;;
6973;SDS011;3527;52.376;8.990;2023-07-31T04:11:23;2.73;;;2.13;;
6973;SDS011;3527;52.376;8.990;2023-07-31T04:13:53;3.50;;;1.90;;
6973;SDS011;3527;52.376;8.990;2023-07-31T04:16:21;7.27;;;2.07;;
6973;SDS011;3527;52.376;8.990;2023-07-31T04:19:08;3.43;;;1.70;;
6973;SDS011;3527;52.376;8.990;2023-07-31T04:21:48;2.40;;;1.87;;
6973;SDS011;3527;52.376;8.990;2023-07-31T04:24:48;1.50;;;1.40;;
6973;SDS011;3527;52.376;8.990;2023-07-31T04:27:37;2.40;;;1.67;;
6973;SDS011;3527;52.376;8.990;2023-07-31T04:30:25;2.90;;;1.57;;
6973;SDS011;3527;52.376;8.990;2023-07-31T04:32:53;3.53;;;1.40;;
6973;SDS011;3527;52.376;8.990;2023-07-31T04:35:41;2.07;;;1.30;;
6973;SDS011;3527;52.376;8.990;2023-07-31T04:38:09;1.70;;;1.13;;
6973;SDS011;3527;52.376;8.990;2023-07-31T04:40:56;1.67;;;1.07;;
6973;SDS011;3527;52.376;8.990;2023-07-31T04:43:43;2.00;;;1.10;;
6973;SDS011;3527;52.376;8.990;2023-07-31T04:46:11;2.57;;;1.27;;
6973;SDS011;3527;52.376;8.990;2023-07-31T04:48:58;3.43;;;1.83;;
6973;SDS011;3527;52.376;8.990;2023-07-31T04:51:27;2.70;;;1.63;;
6973;SDS011;3527;52.376;8.990;2023-07-31T04:53:55;2.23;;;1.83;;
6973;SDS011;3527;52.376;8.990;2023-07-31T04:56:27;4.03;;;2.37;;
6973;SDS011;3527;52.376;8.990;2023-07-31T04:58:58;4.83;;;3.23;;
6973;SDS011;3527;52.376;8.990;2023-07-31T05:01:26;5.50;;;3.37;;
6973;SDS011;3527;52.376;8.990;2023-07-31T05:04:05;6.03;;;4.20;;
6973;SDS011;3527;52.376;8.990;2023-07-31T05:06:33;9.77;;;5.43;;
6973;SDS011;3527;52.376;8.990;2023-07-31T05:09:02;8.87;;;6.00;;
6973;SDS011;3527;52.376;8.990;2023-07-31T05:11:30;9.67;;;6.10;;
6973;SDS011;3527;52.376;8.990;2023-07-31T05:13:58;12.03;;;6.63;;
6973;SDS011;3527;52.376;8.990;2023-07-31T05:16:33;12.10;;;7.33;;
6973;SDS011;3527;52.376;8.990;2023-07-31T05:19:04;13.57;;;7.77;;
6973;SDS011;3527;52.376;8.990;2023-07-31T05:21:31;16.57;;;8.77;;
6973;SDS011;3527;52.376;8.990;2023-07-31T05:23:58;15.17;;;9.10;;
6973;SDS011;3527;52.376;8.990;2023-07-31T05:26:32;16.67;;;9.77;;
6973;SDS011;3527;52.376;8.990;2023-07-31T05:28:59;15.90;;;9.40;;
6973;SDS011;3527;52.376;8.990;2023-07-31T05:31:27;15.53;;;10.57;;
6973;SDS011;3527;52.376;8.990;2023-07-31T05:33:54;14.80;;;9.50;;
6973;SDS011;3527;52.376;8.990;2023-07-31T05:36:22;20.47;;;11.10;;
6973;SDS011;3527;52.376;8.990;2023-07-31T05:38:50;18.00;;;11.97;;
6973;SDS011;3527;52.376;8.990;2023-07-31T05:41:18;17.83;;;11.23;;
6973;SDS011;3527;52.376;8.990;2023-07-31T05:43:46;21.13;;;11.87;;
6973;SDS011;3527;52.376;8.990;2023-07-31T05:46:13;18.27;;;11.83;;
6973;SDS011;3527;52.376;8.990;2023-07-31T05:48:41;19.37;;;11.67;;
6973;SDS011;3527;52.376;8.990;2023-07-31T05:51:18;20.70;;;11.97;;
6973;SDS011;3527;52.376;8.990;2023-07-31T05:53:45;18.73;;;10.70;;
6973;SDS011;3527;52.376;8.990;2023-07-31T05:56:15;20.67;;;10.67;;
6973;SDS011;3527;52.376;8.990;2023-07-31T05:58:41;14.23;;;10.03;;
6973;SDS011;3527;52.376;8.990;2023-07-31T06:01:10;17.23;;;10.93;;
6973;SDS011;3527;52.376;8.990;2023-07-31T06:03:38;20.80;;;11.07;;
6973;SDS011;3527;52.376;8.990;2023-07-31T06:06:06;16.53;;;9.80;;
6973;SDS011;3527;52.376;8.990;2023-07-31T06:08:35;16.43;;;10.57;;
6973;SDS011;3527;52.376;8.990;2023-07-31T06:11:02;19.70;;;11.53;;
6973;SDS011;3527;52.376;8.990;2023-07-31T06:13:43;19.50;;;10.00;;
6973;SDS011;3527;52.376;8.990;2023-07-31T06:16:11;19.27;;;11.23;;
6973;SDS011;3527;52.376;8.990;2023-07-31T06:18:38;19.17;;;11.60;;
6973;SDS011;3527;52.376;8.990;2023-07-31T06:21:05;27.43;;;12.17;;
6973;SDS011;3527;52.376;8.990;2023-07-31T06:23:33;23.23;;;11.97;;
6973;SDS011;3527;52.376;8.990;2023-07-31T06:26:00;20.23;;;11.43;;
6973;SDS011;3527;52.376;8.990;2023-07-31T06:28:28;24.87;;;12.50;;
6973;SDS011;3527;52.376;8.990;2023-07-31T06:31:05;23.60;;;11.83;;
6973;SDS011;3527;52.376;8.990;2023-07-31T06:33:34;25.93;;;11.47;;
6973;SDS011;3527;52.376;8.990;2023-07-31T06:36:01;20.50;;;11.37;;
6973;SDS011;3527;52.376;8.990;2023-07-31T06:38:28;28.60;;;11.70;;
6973;SDS011;3527;52.376;8.990;2023-07-31T06:40:57;22.57;;;11.47;;
6973;SDS011;3527;52.376;8.990;2023-07-31T06:43:24;24.77;;;12.37;;
6973;SDS011;3527;52.376;8.990;2023-07-31T06:45:54;18.80;;;10.63;;
6973;SDS011;3527;52.376;8.990;2023-07-31T06:48:22;21.13;;;10.83;;
6973;SDS011;3527;52.376;8.990;2023-07-31T06:50:48;19.90;;;10.53;;
6973;SDS011;3527;52.376;8.990;2023-07-31T06:53:17;20.03;;;10.73;;
6973;SDS011;3527;52.376;8.990;2023-07-31T06:55:44;21.43;;;10.07;;
6973;SDS011;3527;52.376;8.990;2023-07-31T06:58:11;24.97;;;10.93;;
6973;SDS011;3527;52.376;8.990;2023-07-31T07:00:38;19.13;;;9.13;;
6973;SDS011;3527;52.376;8.990;2023-07-31T07:03:05;14.90;;;8.63;;
6973;SDS011;3527;52.376;8.990;2023-07-31T07:05:32;19.57;;;9.27;;
6973;SDS011;3527;52.376;8.990;2023-07-31T07:08:04;14.70;;;8.23;;
6973;SDS011;3527;52.376;8.990;2023-07-31T07:10:31;18.77;;;8.60;;
6973;SDS011;3527;52.376;8.990;2023-07-31T07:13:10;23.83;;;9.87;;
6973;SDS011;3527;52.376;8.990;2023-07-31T07:15:37;14.20;;;7.40;;
6973;SDS011;3527;52.376;8.990;2023-07-31T07:18:04;19.63;;;8.20;;
6973;SDS011;3527;52.376;8.990;2023-07-31T07:20:31;16.73;;;7.70;;
6973;SDS011;3527;52.376;8.990;2023-07-31T07:22:58;13.37;;;8.03;;
6973;SDS011;3527;52.376;8.990;2023-07-31T07:25:25;13.37;;;7.63;;
6973;SDS011;3527;52.376;8.990;2023-07-31T07:33:04;16.30;;;7.37;;
6973;SDS011;3527;52.376;8.990;2023-07-31T07:35:33;12.00;;;7.20;;
6973;SDS011;3527;52.376;8.990;2023-07-31T07:38:04;14.90;;;7.70;;
6973;SDS011;3527;52.376;8.990;2023-07-31T07:40:40;16.00;;;7.50;;
6973;SDS011;3527;52.376;8.990;2023-07-31T07:43:10;18.37;;;7.30;;
6973;SDS011;3527;52.376;8.990;2023-07-31T07:45:37;16.93;;;7.60;;
6973;SDS011;3527;52.376;8.990;2023-07-31T07:48:04;13.23;;;7.27;;
6973;SDS011;3527;52.376;8.990;2023-07-31T07:50:31;13.70;;;7.03;;
6973;SDS011;3527;52.376;8.990;2023-07-31T07:52:59;13.40;;;6.83;;
6973;SDS011;3527;52.376;8.990;2023-07-31T07:55:27;10.97;;;6.73;;
6973;SDS011;3527;52.376;8.990;2023-07-31T07:58:38;12.67;;;6.43;;
6973;SDS011;3527;52.376;8.990;2023-07-31T08:01:18;13.83;;;6.80;;
6973;SDS011;3527;52.376;8.990;2023-07-31T08:03:44;13.20;;;6.43;;
6973;SDS011;3527;52.376;8.990;2023-07-31T08:06:18;13.00;;;6.30;;
6973;SDS011;3527;52.376;8.990;2023-07-31T08:08:53;13.57;;;6.20;;
6973;SDS011;3527;52.376;8.990;2023-07-31T08:12:06;13.37;;;6.00;;
6973;SDS011;3527;52.376;8.990;2023-07-31T08:14:37;8.93;;;5.50;;
6973;SDS011;3527;52.376;8.990;2023-07-31T08:17:07;14.00;;;5.60;;
6973;SDS011;3527;52.376;8.990;2023-07-31T08:19:39;11.70;;;6.13;;
6973;SDS011;3527;52.376;8.990;2023-07-31T08:22:07;10.90;;;5.27;;
6973;SDS011;3527;52.376;8.990;2023-07-31T08:24:38;8.93;;;5.47;;
6973;SDS011;3527;52.376;8.990;2023-07-31T08:27:05;13.43;;;6.03;;
6973;SDS011;3527;52.376;8.990;2023-07-31T08:29:32;10.77;;;6.70;;
6973;SDS011;3527;52.376;8.990;2023-07-31T08:32:04;10.83;;;6.17;;
6973;SDS011;3527;52.376;8.990;2023-07-31T08:34:33;11.83;;;6.00;;
6973;SDS011;3527;52.376;8.990;2023-07-31T08:37:19;12.03;;;6.33;;
6973;SDS011;3527;52.376;8.990;2023-07-31T08:40:53;10.53;;;6.10;;
6973;SDS011;3527;52.376;8.990;2023-07-31T08:43:27;13.63;;;6.20;;
6973;SDS011;3527;52.376;8.990;2023-07-31T08:46:57;11.17;;;6.13;;
6973;SDS011;3527;52.376;8.990;2023-07-31T08:49:26;13.37;;;6.03;;
6973;SDS011;3527;52.376;8.990;2023-07-31T08:51:54;9.40;;;6.93;;
6973;SDS011;3527;52.376;8.990;2023-07-31T08:54:21;9.93;;;6.10;;
6973;SDS011;3527;52.376;8.990;2023-07-31T08:56:50;10.37;;;6.67;;
6973;SDS011;3527;52.376;8.990;2023-07-31T08:59:24;10.37;;;6.20;;
6973;SDS011;3527;52.376;8.990;2023-07-31T09:02:08;9.20;;;6.20;;
6973;SDS011;3527;52.376;8.990;2023-07-31T09:04:44;9.43;;;5.53;;
6973;SDS011;3527;52.376;8.990;2023-07-31T09:07:12;8.43;;;6.10;;
6973;SDS011;3527;52.376;8.990;2023-07-31T09:09:42;11.27;;;5.57;;
6973;SDS011;3527;52.376;8.990;2023-07-31T09:12:09;10.33;;;4.70;;
6973;SDS011;3527;52.376;8.990;2023-07-31T09:14:36;11.77;;;5.67;;
6973;SDS011;3527;52.376;8.990;2023-07-31T09:17:05;7.03;;;5.03;;
6973;SDS011;3527;52.376;8.990;2023-07-31T09:19:33;9.60;;;5.33;;
6973;SDS011;3527;52.376;8.990;2023-07-31T09:22:06;8.03;;;5.00;;
6973;SDS011;3527;52.376;8.990;2023-07-31T09:24:34;6.83;;;4.80;;
6973;SDS011;3527;52.376;8.990;2023-07-31T09:27:06;5.53;;;4.57;;
6973;SDS011;3527;52.376;8.990;2023-07-31T09:29:44;7.33;;;4.37;;
6973;SDS011;3527;52.376;8.990;2023-07-31T09:32:25;6.27;;;4.33;;
6973;SDS011;3527;52.376;8.990;2023-07-31T09:35:21;4.53;;;3.97;;
6973;SDS011;3527;52.376;8.990;2023-07-31T09:38:19;5.63;;;3.50;;
6973;SDS011;3527;52.376;8.990;2023-07-31T09:40:49;6.03;;;3.77;;
6973;SDS011;3527;52.376;8.990;2023-07-31T09:43:18;5.97;;;3.87;;
6973;SDS011;3527;52.376;8.990;2023-07-31T09:45:46;4.70;;;3.77;;
6973;SDS011;3527;52.376;8.990;2023-07-31T09:48:18;4.73;;;3.37;;
6973;SDS011;3527;52.376;8.990;2023-07-31T09:50:46;5.67;;;3.30;;
6973;SDS011;3527;52.376;8.990;2023-07-31T09:53:16;3.53;;;2.93;;
6973;SDS011;3527;52.376;8.990;2023-07-31T09:55:43;3.27;;;2.97;;
6973;SDS011;3527;52.376;8.990;2023-07-31T09:58:12;6.47;;;3.10;;
6973;SDS011;3527;52.376;8.990;2023-07-31T10:00:40;3.77;;;2.90;;
6973;SDS011;3527;52.376;8.990;2023-07-31T10:03:09;3.70;;;2.90;;
6973;SDS011;3527;52.376;8.990;2023-07-31T10:05:39;3.77;;;2.60;;
6973;SDS011;3527;52.376;8.990;2023-07-31T10:08:09;3.43;;;2.70;;
6973;SDS011;3527;52.376;8.990;2023-07-31T10:10:37;3.33;;;2.53;;
6973;SDS011;3527;52.376;8.990;2023-07-31T10:13:09;4.40;;;2.63;;
6973;SDS011;3527;52.376;8.990;2023-07-31T10:15:36;3.23;;;2.90;;
6973;SDS011;3527;52.376;8.990;2023-07-31T10:18:07;3.07;;;2.73;;
6973;SDS011;3527;52.376;8.990;2023-07-31T10:20:35;3.27;;;2.13;;
6973;SDS011;3527;52.376;8.990;2023-07-31T10:23:03;5.87;;;2.67;;
6973;SDS011;3527;52.376;8.990;2023-07-31T10:25:30;2.77;;;2.27;;
6973;SDS011;3527;52.376;8.990;2023-07-31T10:28:06;3.57;;;2.73;;
6973;SDS011;3527;52.376;8.990;2023-07-31T10:30:39;5.17;;;2.80;;
6973;SDS011;3527;52.376;8.990;2023-07-31T10:33:09;4.17;;;2.77;;
6973;SDS011;3527;52.376;8.990;2023-07-31T10:35:39;2.83;;;2.43;;
6973;SDS011;3527;52.376;8.990;2023-07-31T10:38:17;4.40;;;2.97;;
6973;SDS011;3527;52.376;8.990;2023-07-31T10:40:44;3.33;;;2.80;;
6973;SDS011;3527;52.376;8.990;2023-07-31T10:43:23;4.03;;;2.57;;
6973;SDS011;3527;52.376;8.990;2023-07-31T10:45:54;2.60;;;2.33;;
6973;SDS011;3527;52.376;8.990;2023-07-31T10:48:22;3.13;;;2.50;;
6973;SDS011;3527;52.376;8.990;2023-07-31T10:50:51;3.70;;;2.20;;
6973;SDS011;3527;52.376;8.990;2023-07-31T10:53:23;3.67;;;2.27;;
6973;SDS011;3527;52.376;8.990;2023-07-31T10:55:59;5.63;;;2.37;;
6973;SDS011;3527;52.376;8.990;2023-07-31T10:58:27;4.20;;;2.23;;
6973;SDS011;3527;52.376;8.990;2023-07-31T11:00:58;6.10;;;2.70;;
6973;SDS011;3527;52.376;8.990;2023-07-31T11:03:27;3.07;;;2.00;;
6973;SDS011;3527;52.376;8.990;2023-07-31T11:06:10;3.10;;;2.30;;
6973;SDS011;3527;52.376;8.990;2023-07-31T11:08:46;3.83;;;2.40;;
6973;SDS011;3527;52.376;8.990;2023-07-31T11:11:15;3.33;;;2.07;;
6973;SDS011;3527;52.376;8.990;2023-07-31T11:13:48;2.60;;;1.87;;
6973;SDS011;3527;52.376;8.990;2023-07-31T11:16:16;2.77;;;1.70;;
6973;SDS011;3527;52.376;8.990;2023-07-31T11:18:46;2.80;;;2.00;;
6973;SDS011;3527;52.376;8.990;2023-07-31T11:21:15;3.27;;;2.07;;
6973;SDS011;3527;52.376;8.990;2023-07-31T11:23:51;1.87;;;1.57;;
6973;SDS011;3527;52.376;8.990;2023-07-31T11:26:27;2.97;;;2.17;;
6973;SDS011;3527;52.376;8.990;2023-07-31T11:28:54;2.57;;;1.63;;
6973;SDS011;3527;52.376;8.990;2023-07-31T11:31:21;4.20;;;2.23;;
6973;SDS011;3527;52.376;8.990;2023-07-31T11:33:48;5.20;;;1.53;;
6973;SDS011;3527;52.376;8.990;2023-07-31T11:36:19;2.60;;;1.63;;
6973;SDS011;3527;52.376;8.990;2023-07-31T11:38:47;2.20;;;1.40;;
6973;SDS011;3527;52.376;8.990;2023-07-31T11:41:15;1.83;;;1.43;;
6973;SDS011;3527;52.376;8.990;2023-07-31T11:43:44;3.40;;;1.50;;
6973;SDS011;3527;52.376;8.990;2023-07-31T11:46:12;2.87;;;1.60;;
6973;SDS011;3527;52.376;8.990;2023-07-31T11:48:41;1.70;;;1.40;;
6973;SDS011;3527;52.376;8.990;2023-07-31T11:51:10;2.17;;;1.33;;
6973;SDS011;3527;52.376;8.990;2023-07-31T11:56:40;1.70;;;1.60;;
6973;SDS011;3527;52.376;8.990;2023-07-31T11:59:08;3.30;;;1.40;;
6973;SDS011;3527;52.376;8.990;2023-07-31T12:01:35;1.70;;;1.57;;
6973;SDS011;3527;52.376;8.990;2023-07-31T12:04:02;2.77;;;1.53;;
6973;SDS011;3527;52.376;8.990;2023-07-31T12:06:33;2.83;;;1.67;;
6973;SDS011;3527;52.376;8.990;2023-07-31T12:09:04;2.03;;;1.60;;
6973;SDS011;3527;52.376;8.990;2023-07-31T12:11:42;1.80;;;1.50;;
6973;SDS011;3527;52.376;8.990;2023-07-31T12:14:21;1.80;;;1.40;;
6973;SDS011;3527;52.376;8.990;2023-07-31T12:16:58;1.73;;;1.30;;
6973;SDS011;3527;52.376;8.990;2023-07-31T12:19:26;2.43;;;1.30;;
6973;SDS011;3527;52.376;8.990;2023-07-31T12:21:58;1.73;;;1.20;;
6973;SDS011;3527;52.376;8.990;2023-07-31T12:24:27;1.70;;;1.30;;
6973;SDS011;3527;52.376;8.990;2023-07-31T12:26:54;1.43;;;1.27;;
6973;SDS011;3527;52.376;8.990;2023-07-31T12:29:21;2.40;;;1.80;;
6973;SDS011;3527;52.376;8.990;2023-07-31T12:31:48;2.03;;;1.80;;
6973;SDS011;3527;52.376;8.990;2023-07-31T12:34:16;2.13;;;1.40;;
6973;SDS011;3527;52.376;8.990;2023-07-31T12:36:44;1.80;;;1.40;;
6973;SDS011;3527;52.376;8.990;2023-07-31T12:39:11;1.53;;;1.30;;
6973;SDS011;3527;52.376;8.990;2023-07-31T12:41:38;1.60;;;1.40;;
6973;SDS011;3527;52.376;8.990;2023-07-31T12:44:05;3.93;;;1.47;;
6973;SDS011;3527;52.376;8.990;2023-07-31T12:46:32;2.10;;;1.40;;
6973;SDS011;3527;52.376;8.990;2023-07-31T12:49:00;1.73;;;1.30;;
6973;SDS011;3527;52.376;8.990;2023-07-31T12:51:27;2.73;;;1.67;;
6973;SDS011;3527;52.376;8.990;2023-07-31T12:53:54;1.60;;;1.30;;
6973;SDS011;3527;52.376;8.990;2023-07-31T12:56:21;2.60;;;1.50;;
6973;SDS011;3527;52.376;8.990;2023-07-31T12:58:48;1.93;;;1.20;;
6973;SDS011;3527;52.376;8.990;2023-07-31T13:01:14;1.70;;;1.40;;
6973;SDS011;3527;52.376;8.990;2023-07-31T13:03:44;3.87;;;1.00;;
6973;SDS011;3527;52.376;8.990;2023-07-31T13:06:11;1.73;;;1.30;;
6973;SDS011;3527;52.376;8.990;2023-07-31T13:08:38;1.87;;;1.20;;
6973;SDS011;3527;52.376;8.990;2023-07-31T13:11:05;1.30;;;1.00;;
6973;SDS011;3527;52.376;8.990;2023-07-31T13:13:32;1.50;;;1.20;;
6973;SDS011;3527;52.376;8.990;2023-07-31T13:15:59;1.70;;;1.10;;
6973;SDS011;3527;52.376;8.990;2023-07-31T13:18:26;2.63;;;1.00;;
6973;SDS011;3527;52.376;8.990;2023-07-31T13:20:53;1.50;;;1.20;;
6973;SDS011;3527;52.376;8.990;2023-07-31T13:23:19;2.23;;;1.20;;
6973;SDS011;3527;52.376;8.990;2023-07-31T13:25:46;1.53;;;1.20;;
6973;SDS011;3527;52.376;8.990;2023-07-31T13:28:13;1.43;;;1.13;;
6973;SDS011;3527;52.376;8.990;2023-07-31T13:30:41;1.20;;;1.00;;
6973;SDS011;3527;52.376;8.990;2023-07-31T13:33:07;2.23;;;1.30;;
6973;SDS011;3527;52.376;8.990;2023-07-31T13:35:50;1.77;;;1.43;;
6973;SDS011;3527;52.376;8.990;2023-07-31T13:38:17;1.40;;;1.30;;
6973;SDS011;3527;52.376;8.990;2023-07-31T13:40:44;2.57;;;1.70;;
6973;SDS011;3527;52.376;8.990;2023-07-31T13:43:11;2.60;;;1.83;;
6973;SDS011;3527;52.376;8.990;2023-07-31T13:45:37;2.57;;;2.37;;
6973;SDS011;3527;52.376;8.990;2023-07-31T13:48:04;2.97;;;2.50;;
6973;SDS011;3527;52.376;8.990;2023-07-31T13:50:31;2.63;;;2.40;;
6973;SDS011;3527;52.376;8.990;2023-07-31T13:52:58;3.83;;;2.83;;
6973;SDS011;3527;52.376;8.990;2023-07-31T13:55:25;4.73;;;3.03;;
6973;SDS011;3527;52.376;8.990;2023-07-31T13:57:52;4.53;;;3.17;;
6973;SDS011;3527;52.376;8.990;2023-07-31T14:00:19;4.30;;;3.90;;
6973;SDS011;3527;52.376;8.990;2023-07-31T14:02:46;4.90;;;4.00;;
6973;SDS011;3527;52.376;8.990;2023-07-31T14:05:13;6.27;;;4.87;;
6973;SDS011;3527;52.376;8.990;2023-07-31T14:07:40;5.10;;;4.57;;
6973;SDS011;3527;52.376;8.990;2023-07-31T14:10:07;5.97;;;5.23;;
6973;SDS011;3527;52.376;8.990;2023-07-31T14:12:34;10.07;;;4.93;;
6973;SDS011;3527;52.376;8.990;2023-07-31T14:15:09;7.10;;;5.57;;
6973;SDS011;3527;52.376;8.990;2023-07-31T14:17:36;6.10;;;5.00;;
6973;SDS011;3527;52.376;8.990;2023-07-31T14:20:03;6.03;;;5.23;;
6973;SDS011;3527;52.376;8.990;2023-07-31T14:22:32;5.47;;;4.90;;
6973;SDS011;3527;52.376;8.990;2023-07-31T14:25:00;6.23;;;4.30;;
6973;SDS011;3527;52.376;8.990;2023-07-31T14:27:28;6.30;;;5.10;;
6973;SDS011;3527;52.376;8.990;2023-07-31T14:29:54;5.43;;;4.77;;
6973;SDS011;3527;52.376;8.990;2023-07-31T14:32:22;5.13;;;4.63;;
6973;SDS011;3527;52.376;8.990;2023-07-31T14:34:52;5.70;;;4.70;;
6973;SDS011;3527;52.376;8.990;2023-07-31T14:37:19;5.20;;;4.63;;
6973;SDS011;3527;52.376;8.990;2023-07-31T14:39:46;6.53;;;5.50;;
6973;SDS011;3527;52.376;8.990;2023-07-31T14:42:13;5.70;;;4.90;;
6973;SDS011;3527;52.376;8.990;2023-07-31T14:44:39;6.77;;;4.60;;
6973;SDS011;3527;52.376;8.990;2023-07-31T14:47:06;5.73;;;4.80;;
6973;SDS011;3527;52.376;8.990;2023-07-31T14:49:33;5.80;;;4.60;;
6973;SDS011;3527;52.376;8.990;2023-07-31T14:52:00;5.03;;;4.53;;
6973;SDS011;3527;52.376;8.990;2023-07-31T14:54:27;4.80;;;3.90;;
6973;SDS011;3527;52.376;8.990;2023-07-31T14:56:53;5.03;;;4.53;;
6973;SDS011;3527;52.376;8.990;2023-07-31T14:59:20;4.30;;;3.80;;
6973;SDS011;3527;52.376;8.990;2023-07-31T15:01:47;5.47;;;4.60;;
6973;SDS011;3527;52.376;8.990;2023-07-31T15:04:14;6.27;;;4.73;;
6973;SDS011;3527;52.376;8.990;2023-07-31T15:06:41;5.83;;;4.87;;
6973;SDS011;3527;52.376;8.990;2023-07-31T15:09:08;6.00;;;4.70;;
6973;SDS011;3527;52.376;8.990;2023-07-31T15:11:35;5.73;;;5.17;;
6973;SDS011;3527;52.376;8.990;2023-07-31T15:14:02;5.90;;;5.30;;
6973;SDS011;3527;52.376;8.990;2023-07-31T15:16:29;5.60;;;5.00;;
6973;SDS011;3527;52.376;8.990;2023-07-31T15:18:58;6.47;;;4.93;;
6973;SDS011;3527;52.376;8.990;2023-07-31T15:21:25;5.83;;;4.60;;
6973;SDS011;3527;52.376;8.990;2023-07-31T15:23:52;6.47;;;5.33;;
6973;SDS011;3527;52.376;8.990;2023-07-31T15:26:19;5.63;;;4.70;;
6973;SDS011;3527;52.376;8.990;2023-07-31T15:28:48;6.73;;;5.13;;
6973;SDS011;3527;52.376;8.990;2023-07-31T15:31:21;5.47;;;4.63;;
6973;SDS011;3527;52.376;8.990;2023-07-31T15:33:51;4.80;;;4.30;;
6973;SDS011;3527;52.376;8.990;2023-07-31T15:36:18;4.97;;;4.47;;
6973;SDS011;3527;52.376;8.990;2023-07-31T15:38:45;5.40;;;4.70;;
6973;SDS011;3527;52.376;8.990;2023-07-31T15:41:12;5.50;;;4.20;;
6973;SDS011;3527;52.376;8.990;2023-07-31T15:43:39;7.13;;;4.27;;
6973;SDS011;3527;52.376;8.990;2023-07-31T15:46:06;5.43;;;4.80;;
6973;SDS011;3527;52.376;8.990;2023-07-31T15:48:33;5.40;;;4.50;;